Time;durP1;ratioP1;P1;durP2;ratioP2;P2;SDS_P1;SDS_P2;PMS_P1;PMS_P2;Temp;Humidity;BMP_temperature;BMP_pressure;BME280_temperature;BME280_humidity;BME280_pressure;Samples;Min_cycle;Max_cycle;Signal;HPM_P1;HPM_P2
2022/02/16 00:00:27;;;;;;;47.67;32.70;;;;;;;6.00;83.12;99826.42;2783967;85;21052;-71
2022/02/16 00:04:30;;;;;;;35.80;26.12;;;;;;;5.94;83.61;99824.69;2783064;85;21540;-72
2022/02/16 00:08:32;;;;;;;41.65;30.20;;;;;;;5.88;83.94;99821.14;2783230;85;21100;-70
2022/02/16 00:12:34;;;;;;;37.63;28.57;;;;;;;5.77;85.11;99808.23;2784382;85;21049;-73
2022/02/16 00:16:36;;;;;;;47.48;31.68;;;;;;;5.73;85.60;99794.87;2784179;85;21535;-72
2022/02/16 00:20:38;;;;;;;39.00;27.50;;;;;;;5.70;86.43;99799.88;2783560;85;21021;-71
2022/02/16 00:24:39;;;;;;;39.00;28.23;;;;;;;5.79;85.65;99802.36;2783143;85;21022;-72
2022/02/16 00:28:41;;;;;;;40.50;29.60;;;;;;;5.75;85.80;99801.35;2782615;85;21019;-70
2022/02/16 00:32:42;;;;;;;47.08;28.47;;;;;;;5.66;85.99;99799.73;2782182;85;21047;-73
2022/02/16 00:36:44;;;;;;;42.65;28.05;;;;;;;5.58;86.22;99787.07;2783090;85;21015;-75
2022/02/16 00:40:45;;;;;;;44.03;28.23;;;;;;;5.62;85.84;99787.71;2781960;85;21544;-71
2022/02/16 00:44:47;;;;;;;47.23;32.53;;;;;;;5.62;85.45;99792.98;2778020;85;21553;-71
2022/02/16 00:48:49;;;;;;;51.63;34.88;;;;;;;5.67;84.85;99788.69;2777683;85;21116;-72
2022/02/16 00:52:50;;;;;;;53.73;32.33;;;;;;;5.56;84.91;99790.29;2780538;85;21048;-71
2022/02/16 00:56:52;;;;;;;50.43;33.95;;;;;;;5.55;84.77;99783.33;2779759;85;21077;-72
2022/02/16 01:00:53;;;;;;;32.65;24.95;;;;;;;5.41;85.06;99786.06;2779186;85;21791;-71
2022/02/16 01:04:55;;;;;;;37.10;27.22;;;;;;;5.29;85.65;99781.98;2746559;84;21593;-68
2022/02/16 01:08:56;;;;;;;40.28;30.35;;;;;;;5.27;85.83;99772.50;2734899;86;21092;-69
2022/02/16 01:12:58;;;;;;;39.08;26.12;;;;;;;5.33;85.25;99775.20;2735592;86;20997;-72
2022/02/16 01:17:00;;;;;;;44.63;29.30;;;;;;;5.37;84.78;99766.95;2735160;85;20985;-72
2022/02/16 01:21:02;;;;;;;40.05;26.80;;;;;;;5.37;84.37;99760.36;2767678;85;20971;-72
2022/02/16 01:25:04;;;;;;;35.80;25.35;;;;;;;5.29;84.54;99756.92;2828340;84;21835;-75
2022/02/16 01:29:06;;;;;;;34.53;27.45;;;;;;;5.25;84.52;99755.45;2827063;84;21310;-71
2022/02/16 01:33:08;;;;;;;32.13;22.22;;;;;;;5.24;84.41;99751.62;2827775;84;21059;-70
2022/02/16 01:37:09;;;;;;;41.25;26.52;;;;;;;5.14;85.06;99747.45;2827717;84;20999;-74
2022/02/16 01:41:16;;;;;;;41.33;25.00;;;;;;;5.06;85.61;99747.09;2827585;84;21052;-72
2022/02/16 01:45:25;;;;;;;;;;;;;;;5.03;85.86;99733.67;2810722;84;21681;-74
2022/02/16 01:49:27;;;;;;;38.38;25.23;;;;;;;5.05;86.13;99734.41;2808013;84;20126;-70
2022/02/16 01:53:29;;;;;;;37.98;28.05;;;;;;;5.08;86.26;99718.84;2807560;84;21404;-72
2022/02/16 01:57:30;;;;;;;39.20;26.57;;;;;;;5.07;86.44;99718.47;2808340;84;21036;-70
2022/02/16 02:01:33;;;;;;;30.08;24.65;;;;;;;5.14;85.81;99709.22;2808191;84;21445;-74
2022/02/16 02:05:34;;;;;;;37.40;25.57;;;;;;;5.22;85.43;99709.52;2808173;84;21031;-69
2022/02/16 02:09:36;;;;;;;31.95;24.65;;;;;;;5.24;84.89;99696.24;2808144;84;21008;-75
2022/02/16 02:13:38;;;;;;;46.33;28.92;;;;;;;5.28;84.10;99687.98;2808437;84;21106;-71
2022/02/16 02:17:39;;;;;;;39.80;25.85;;;;;;;5.33;83.46;99684.21;2807625;84;21085;-70
2022/02/16 02:21:48;;;;;;;33.20;25.65;;;;;;;5.23;83.35;99686.16;2808073;84;21011;-72
2022/02/16 02:25:54;;;;;;;38.42;28.17;;;;;;;5.14;83.48;99690.27;2808415;84;21087;-70
2022/02/16 02:29:56;;;;;;;34.33;26.10;;;;;;;4.98;84.45;99678.63;2808076;84;21083;-69
2022/02/16 02:33:59;;;;;;;36.95;26.17;;;;;;;4.77;85.56;99669.54;2807804;84;21094;-72
2022/02/16 02:38:01;;;;;;;36.35;27.90;;;;;;;4.76;85.60;99666.53;2808216;84;21420;-68
2022/02/16 02:42:03;;;;;;;34.33;26.75;;;;;;;4.76;85.61;99667.36;2807384;84;21047;-72
2022/02/16 02:46:05;;;;;;;31.70;23.32;;;;;;;4.69;86.28;99662.98;2808482;84;21131;-71
2022/02/16 02:50:08;;;;;;;35.23;22.45;;;;;;;4.66;86.77;99647.38;2808297;84;21024;-69
2022/02/16 02:54:09;;;;;;;35.43;25.00;;;;;;;4.49;88.01;99633.18;2807547;84;21377;-74
2022/02/16 02:58:11;;;;;;;34.40;25.02;;;;;;;4.49;88.13;99627.91;2807484;84;21471;-72
2022/02/16 03:02:13;;;;;;;33.18;23.70;;;;;;;4.52;87.83;99627.70;2799989;83;21066;-70
2022/02/16 03:06:14;;;;;;;34.25;22.60;;;;;;;4.43;87.56;99627.87;2770729;85;21038;-72
2022/02/16 03:10:16;;;;;;;27.07;20.50;;;;;;;4.45;86.77;99627.30;2766805;85;21647;-70
2022/02/16 03:14:18;;;;;;;26.62;18.87;;;;;;;4.46;86.36;99624.17;2761672;85;21073;-72
2022/02/16 03:18:20;;;;;;;30.25;20.15;;;;;;;4.50;85.83;99617.75;2770443;85;21068;-74
2022/02/16 03:22:23;;;;;;;33.25;22.10;;;;;;;4.50;85.34;99611.16;2770723;85;21061;-72
2022/02/16 03:26:24;;;;;;;28.55;19.65;;;;;;;4.45;85.38;99604.05;2771335;85;21053;-74
2022/02/16 03:30:26;;;;;;;27.25;17.73;;;;;;;4.49;85.08;99597.63;2771508;85;21118;-74
2022/02/16 03:34:28;;;;;;;28.07;18.92;;;;;;;4.33;85.67;99590.78;2770955;85;21085;-71
2022/02/16 03:38:29;;;;;;;21.17;15.70;;;;;;;4.31;85.03;99582.11;2770603;85;21041;-70
2022/02/16 03:42:31;;;;;;;18.87;14.10;;;;;;;4.25;85.02;99570.69;2771148;84;22319;-75
2022/02/16 03:46:32;;;;;;;21.23;11.85;;;;;;;4.19;85.61;99565.34;2777967;84;21929;-74
2022/02/16 03:50:34;;;;;;;21.05;13.13;;;;;;;4.39;84.99;99569.75;2777955;85;21085;-73
2022/02/16 03:54:35;;;;;;;15.00;10.88;;;;;;;4.52;84.28;99561.85;2776569;85;21155;-71
2022/02/16 03:58:37;;;;;;;12.25;10.13;;;;;;;4.64;83.39;99558.39;2777184;85;21427;-74
2022/02/16 04:02:39;;;;;;;14.75;10.00;;;;;;;4.74;82.33;99557.77;2777958;85;21006;-71
2022/02/16 04:06:40;;;;;;;10.63;8.35;;;;;;;4.75;81.64;99544.96;2777665;85;21072;-71
2022/02/16 04:10:42;;;;;;;9.93;8.00;;;;;;;4.82;81.21;99540.94;2777375;85;21563;-72
2022/02/16 04:14:43;;;;;;;14.40;8.68;;;;;;;4.87;80.78;99542.77;2777329;85;21407;-70
2022/02/16 04:18:45;;;;;;;8.20;6.72;;;;;;;4.98;80.16;99537.59;2777571;85;21030;-68
2022/02/16 04:22:50;;;;;;;10.38;7.30;;;;;;;5.00;79.73;99532.20;2777304;85;20998;-70
2022/02/16 04:26:51;;;;;;;8.75;6.72;;;;;;;5.11;79.63;99528.80;2777948;85;21097;-73
2022/02/16 04:30:53;;;;;;;9.03;7.17;;;;;;;5.12;78.76;99533.16;2827025;84;21043;-70
2022/02/16 04:34:55;;;;;;;8.33;6.33;;;;;;;5.08;78.40;99521.11;2826822;84;21110;-67
2022/02/16 04:38:58;;;;;;;13.28;7.20;;;;;;;5.03;78.36;99519.30;2828344;84;21011;-69
2022/02/16 04:43:03;;;;;;;8.15;6.22;;;;;;;5.03;78.17;99504.80;2828147;84;21066;-72
2022/02/16 04:47:03;;;;;;;8.33;6.55;;;;;;;5.12;77.88;99510.25;2826863;84;21485;-70
2022/02/16 04:51:05;;;;;;;6.12;5.55;;;;;;;5.12;77.57;99503.66;2827431;84;21620;-71
2022/02/16 04:55:12;;;;;;;7.53;5.42;;;;;;;5.14;76.90;99495.66;2827990;84;21070;-70
2022/02/16 04:59:14;;;;;;;10.35;6.05;;;;;;;5.25;76.19;99483.84;2828991;84;21289;-75
2022/02/16 05:03:15;;;;;;;4.92;4.42;;;;;;;5.27;76.19;99479.28;2827730;84;20980;-69
2022/02/16 05:07:17;;;;;;;8.35;5.85;;;;;;;5.35;76.11;99476.59;2824967;84;21054;-69
2022/02/16 05:11:19;;;;;;;7.35;4.92;;;;;;;5.42;75.99;99475.17;2826207;84;20979;-68
2022/02/16 05:15:20;;;;;;;11.83;6.97;;;;;;;5.38;76.26;99464.49;2828335;84;21051;-69
2022/02/16 05:19:22;;;;;;;7.42;5.45;;;;;;;5.37;75.98;99460.17;2828387;84;21004;-70
2022/02/16 05:23:24;;;;;;;7.30;6.37;;;;;;;5.32;76.33;99446.48;2828330;84;20999;-70
2022/02/16 05:27:25;;;;;;;10.28;7.03;;;;;;;5.36;76.30;99445.30;2828585;84;21670;-72
2022/02/16 05:31:27;;;;;;;12.10;9.08;;;;;;;5.38;76.57;99438.12;2828120;84;21097;-69
2022/02/16 05:35:29;;;;;;;11.95;8.70;;;;;;;5.40;76.79;99435.74;2827695;84;21015;-68
2022/02/16 05:39:31;;;;;;;8.93;7.92;;;;;;;5.46;76.66;99427.00;2828209;84;21043;-69
2022/02/16 05:43:32;;;;;;;9.08;6.80;;;;;;;5.50;76.75;99420.07;2827528;83;21086;-68
2022/02/16 05:47:34;;;;;;;12.73;8.90;;;;;;;5.55;76.74;99417.92;2823706;84;20998;-68
2022/02/16 05:51:36;;;;;;;9.58;7.87;;;;;;;5.66;76.44;99413.63;2822815;84;21047;-68
2022/02/16 05:55:38;;;;;;;11.43;6.75;;;;;;;5.82;76.25;99406.72;2823091;84;21090;-68
2022/02/16 05:59:39;;;;;;;11.33;7.67;;;;;;;5.84;76.12;99404.31;2823646;84;21082;-68
2022/02/16 06:03:43;;;;;;;15.45;9.05;;;;;;;5.97;76.00;99400.24;2823813;84;21010;-69
2022/02/16 06:07:44;;;;;;;11.28;8.80;;;;;;;6.02;75.97;99402.57;2822417;84;21094;-68
2022/02/16 06:11:46;;;;;;;16.30;9.95;;;;;;;6.07;76.20;99400.91;2822997;84;21030;-68
2022/02/16 06:15:47;;;;;;;10.70;8.13;;;;;;;6.04;76.20;99398.02;2822650;84;21026;-69
2022/02/16 06:19:49;;;;;;;12.40;8.45;;;;;;;6.14;76.16;99392.39;2823164;84;21050;-68
2022/02/16 06:23:51;;;;;;;18.95;9.40;;;;;;;6.17;76.25;99379.91;2822601;84;21117;-68
2022/02/16 06:27:54;;;;;;;12.80;9.60;;;;;;;6.20;76.07;99375.70;2823260;84;21093;-69
2022/02/16 06:31:56;;;;;;;11.75;7.42;;;;;;;6.27;75.85;99376.42;2823185;84;21006;-68
2022/02/16 06:35:58;;;;;;;9.88;7.72;;;;;;;6.31;75.66;99383.63;2823150;84;21007;-68
2022/02/16 06:40:00;;;;;;;10.13;8.65;;;;;;;6.35;75.06;99381.11;2823630;84;21049;-68
2022/02/16 06:44:02;;;;;;;10.40;6.92;;;;;;;6.47;74.93;99373.16;2817039;84;21130;-69
2022/02/16 06:48:04;;;;;;;11.35;8.00;;;;;;;6.49;74.31;99368.62;2809824;84;21043;-68
2022/02/16 06:52:06;;;;;;;9.70;7.62;;;;;;;6.49;74.45;99368.62;2773457;85;21006;-69
2022/02/16 06:56:08;;;;;;;10.15;8.30;;;;;;;6.51;74.05;99359.59;2825401;84;21057;-69
2022/02/16 07:00:11;;;;;;;10.88;7.80;;;;;;;6.51;74.03;99345.05;2826662;84;21000;-68
2022/02/16 07:04:12;;;;;;;10.78;8.60;;;;;;;6.53;73.93;99353.69;2817599;84;21067;-68
2022/02/16 07:08:14;;;;;;;8.95;7.20;;;;;;;6.49;73.78;99352.77;2818150;84;21043;-68
2022/02/16 07:12:16;;;;;;;11.35;8.55;;;;;;;6.53;73.85;99355.52;2817772;84;21066;-68
2022/02/16 07:16:17;;;;;;;11.88;7.30;;;;;;;6.56;73.71;99355.26;2818287;84;21035;-68
2022/02/16 07:20:19;;;;;;;10.00;5.78;;;;;;;6.60;73.88;99353.22;2817726;84;21616;-68
2022/02/16 07:24:22;;;;;;;10.53;7.62;;;;;;;6.62;73.69;99348.66;2817961;84;21857;-69
2022/02/16 07:28:23;;;;;;;15.08;8.60;;;;;;;6.65;73.55;99344.44;2817897;84;21047;-68
2022/02/16 07:32:26;;;;;;;9.80;8.15;;;;;;;6.73;73.34;99335.89;2818167;84;21098;-69
2022/02/16 07:36:27;;;;;;;10.40;7.50;;;;;;;6.76;73.08;99333.81;2796635;84;21051;-68
2022/02/16 07:40:29;;;;;;;15.65;11.03;;;;;;;6.84;72.70;99332.73;2818943;84;21067;-68
2022/02/16 07:44:32;;;;;;;10.65;8.53;;;;;;;6.99;72.75;99333.27;2821909;84;21070;-68
2022/02/16 07:48:33;;;;;;;14.45;10.45;;;;;;;7.09;72.23;99327.23;2828846;84;21102;-68
2022/02/16 07:52:37;;;;;;;19.12;13.22;;;;;;;7.20;72.01;99321.88;2829784;84;21091;-67
2022/02/16 07:56:39;;;;;;;9.35;8.35;;;;;;;7.31;71.45;99317.51;2829634;84;21039;-67
2022/02/16 08:00:40;;;;;;;9.30;6.75;;;;;;;7.29;71.29;99307.89;2827276;82;21057;-67
2022/02/16 08:04:42;;;;;;;9.28;6.05;;;;;;;7.35;70.62;99300.41;2824203;84;21027;-68
2022/02/16 08:08:44;;;;;;;10.75;8.13;;;;;;;7.52;70.89;99289.23;2828485;84;21008;-67
2022/02/16 08:12:48;;;;;;;8.83;6.53;;;;;;;7.51;70.42;99283.59;2828097;84;21046;-68
2022/02/16 08:16:50;;;;;;;8.98;5.70;;;;;;;7.53;70.38;99273.70;2824381;84;21035;-69
2022/02/16 08:20:52;;;;;;;7.85;7.03;;;;;;;7.52;70.29;99252.19;2828309;84;21062;-69
2022/02/16 08:24:53;;;;;;;10.98;6.50;;;;;;;7.51;70.48;99259.77;2828198;84;21039;-68
2022/02/16 08:28:55;;;;;;;8.25;5.87;;;;;;;7.62;70.48;99250.05;2829223;84;21059;-69
2022/02/16 08:32:57;;;;;;;11.18;5.42;;;;;;;7.61;70.45;99255.00;2829278;84;21536;-68
2022/02/16 08:36:58;;;;;;;8.53;4.85;;;;;;;7.62;70.70;99244.29;2828700;84;21496;-68
2022/02/16 08:41:00;;;;;;;7.90;6.40;;;;;;;7.69;70.33;99235.34;2829014;84;21023;-68
2022/02/16 08:45:02;;;;;;;11.15;6.65;;;;;;;7.76;70.31;99224.55;2828292;84;21434;-68
2022/02/16 08:49:04;;;;;;;11.10;6.03;;;;;;;7.76;69.85;99223.70;2828788;84;21038;-68
2022/02/16 08:53:05;;;;;;;8.98;6.70;;;;;;;7.73;70.05;99215.56;2824696;84;21053;-68
2022/02/16 08:57:07;;;;;;;10.58;6.10;;;;;;;7.75;69.79;99214.09;2824312;82;21057;-68
2022/02/16 09:01:09;;;;;;;13.45;7.80;;;;;;;7.81;69.62;99207.77;2826396;84;21050;-68
2022/02/16 09:05:10;;;;;;;11.08;7.37;;;;;;;7.96;69.66;99199.46;2801267;84;21084;-68
2022/02/16 09:09:12;;;;;;;8.15;5.58;;;;;;;8.09;69.22;99203.18;2824829;84;21058;-68
2022/02/16 09:13:14;;;;;;;7.87;5.53;;;;;;;8.31;68.80;99194.16;2827645;84;21047;-68
2022/02/16 09:17:16;;;;;;;15.72;6.58;;;;;;;8.51;68.35;99191.55;2828078;84;21094;-68
2022/02/16 09:21:19;;;;;;;5.95;5.35;;;;;;;8.57;68.24;99184.36;2823768;84;20949;-68
2022/02/16 09:25:21;;;;;;;7.08;5.22;;;;;;;8.55;67.23;99178.36;2823928;82;21781;-67
2022/02/16 09:29:24;;;;;;;9.58;5.67;;;;;;;8.60;67.78;99176.63;2823639;84;20998;-67
2022/02/16 09:33:27;;;;;;;10.65;6.92;;;;;;;8.67;67.30;99171.95;2823195;84;21073;-68
2022/02/16 09:37:28;;;;;;;9.50;7.10;;;;;;;8.69;67.18;99153.23;2822429;84;21412;-67
2022/02/16 09:41:31;;;;;;;9.25;7.12;;;;;;;8.71;67.29;99136.69;2822807;84;21121;-67
2022/02/16 09:45:33;;;;;;;10.15;6.67;;;;;;;8.84;67.17;99129.28;2824772;82;21020;-67
2022/02/16 09:49:36;;;;;;;7.92;6.55;;;;;;;8.99;67.77;99104.45;2827986;84;21019;-67
2022/02/16 09:53:37;;;;;;;13.85;6.28;;;;;;;9.19;67.39;99103.56;2825293;84;21008;-67
2022/02/16 09:57:39;;;;;;;14.63;7.75;;;;;;;9.35;66.91;99096.28;2829479;82;21078;-67
2022/02/16 10:01:58;;;;;;;12.15;4.75;;;;;;;9.58;66.25;99099.39;2826808;84;21126;-68
2022/02/16 10:05:59;;;;;;;4.60;4.20;;;;;;;9.69;65.98;99101.00;2827991;82;21050;-69
2022/02/16 10:10:27;;;;;;;8.58;4.87;;;;;;;9.71;65.96;99085.75;2827656;84;21057;-68
2022/02/16 10:14:32;;;;;;;10.48;5.28;;;;;;;9.85;65.89;99087.90;2826041;84;21051;-68
2022/02/16 10:18:49;;;;;;;9.43;5.30;;;;;;;10.01;65.70;99073.08;2829065;82;21063;-68
2022/02/16 10:22:56;;;;;;;6.58;4.25;;;;;;;10.09;65.21;99076.30;2828301;82;21062;-68
2022/02/16 10:26:57;;;;;;;4.15;3.35;;;;;;;10.17;64.34;99066.24;2828716;82;21062;-68
2022/02/16 10:31:07;;;;;;;8.58;4.55;;;;;;;10.17;64.98;99079.53;2827861;84;21010;-69
2022/02/16 10:35:09;;;;;;;8.73;4.28;;;;;;;10.18;65.42;99075.88;2824534;82;21011;-68
2022/02/16 10:39:11;;;;;;;5.75;3.22;;;;;;;10.17;65.64;99072.41;2827320;84;21070;-68
2022/02/16 10:43:12;;;;;;;4.87;3.58;;;;;;;10.27;65.00;99060.36;2828022;84;21037;-68
2022/02/16 10:47:14;;;;;;;4.60;3.98;;;;;;;10.34;65.67;99048.11;2813751;82;21051;-69
2022/02/16 10:51:21;;;;;;;5.90;3.67;;;;;;;10.45;64.54;99044.91;2811829;82;21549;-68
2022/02/16 10:55:44;;;;;;;3.90;3.20;;;;;;;10.64;64.49;99036.73;2814477;82;21304;-69
2022/02/16 10:59:45;;;;;;;5.75;4.00;;;;;;;10.66;63.89;99034.74;2810655;84;21094;-69
2022/02/16 11:03:51;;;;;;;5.15;3.83;;;;;;;10.51;63.65;99023.01;2772553;85;21047;-69
2022/02/16 11:07:54;;;;;;;5.10;4.60;;;;;;;10.39;63.58;99009.11;2840560;83;21048;-69
2022/02/16 11:11:56;;;;;;;6.85;3.98;;;;;;;10.34;64.88;99004.77;2847840;83;21032;-68
2022/02/16 11:16:00;;;;;;;5.97;5.12;;;;;;;10.43;65.04;98995.39;2847614;83;21347;-68
2022/02/16 11:20:26;;;;;;;5.22;4.53;;;;;;;10.37;63.81;98976.54;2820123;82;21042;-69
2022/02/16 11:24:38;;;;;;;5.87;4.07;;;;;;;10.34;64.17;98955.08;2772294;84;21053;-69
2022/02/16 11:28:41;;;;;;;7.90;3.72;;;;;;;10.34;64.56;98939.14;2825062;82;21015;-68
2022/02/16 11:32:42;;;;;;;5.75;4.15;;;;;;;10.19;63.85;98920.77;2821185;84;21109;-68
2022/02/16 11:36:52;;;;;;;8.00;5.40;;;;;;;10.13;64.30;98915.09;2825065;82;21061;-69
2022/02/16 11:40:56;;;;;;;7.97;5.00;;;;;;;10.13;64.59;98911.63;2825192;82;21034;-68
2022/02/16 11:45:01;;;;;;;4.75;4.20;;;;;;;10.08;64.50;98909.42;2826390;82;21099;-69
2022/02/16 11:49:02;;;;;;;6.28;4.78;;;;;;;10.05;64.92;98891.15;2813822;84;21068;-68
2022/02/16 11:53:08;;;;;;;6.45;4.20;;;;;;;10.22;64.77;98877.93;2826102;84;21007;-66
2022/02/16 12:23:19;;;;;;;5.08;3.65;;;;;;;10.38;66.04;98811.56;2968565;79;22926;-69
2022/02/16 12:27:21;;;;;;;5.30;3.87;;;;;;;10.43;65.85;98800.00;2877470;81;21117;-68
2022/02/16 12:31:27;;;;;;;8.15;3.58;;;;;;;10.51;65.88;98789.05;2883586;81;21014;-70
2022/02/16 12:35:29;;;;;;;3.30;3.05;;;;;;;10.50;65.00;98792.70;2924546;81;21024;-69
2022/02/16 12:39:33;;;;;;;6.40;3.22;;;;;;;10.57;66.50;98778.59;2921511;81;21038;-70
2022/02/16 12:43:36;;;;;;;3.83;2.92;;;;;;;10.58;65.55;98762.12;2924512;81;20984;-68
2022/02/16 12:47:38;;;;;;;3.00;2.70;;;;;;;10.68;65.23;98757.51;2890804;81;20984;-69
2022/02/16 12:51:43;;;;;;;4.30;2.60;;;;;;;10.80;65.71;98753.18;2922888;81;20971;-69
2022/02/16 12:55:47;;;;;;;4.37;3.12;;;;;;;10.82;64.92;98726.77;2921171;81;21066;-69
2022/02/16 13:04:06;;;;;;;6.83;3.12;;;;;;;10.74;65.59;98701.98;2872375;82;21003;-68
2022/02/16 13:08:09;;;;;;;7.28;3.20;;;;;;;10.73;65.90;98693.20;2912067;81;20996;-68
2022/02/16 13:12:11;;;;;;;6.08;3.35;;;;;;;10.74;65.77;98676.23;2912193;81;21027;-68
2022/02/16 13:16:17;;;;;;;6.53;3.60;;;;;;;10.66;64.92;98657.13;2912106;81;21023;-68
2022/02/16 13:20:35;;;;;;;3.67;2.65;;;;;;;10.68;65.87;98644.48;2812579;84;21058;-68
2022/02/16 13:24:37;;;;;;;2.15;1.80;;;;;;;10.60;65.33;98628.52;2911376;82;20976;-67
2022/02/16 13:28:40;;;;;;;4.85;2.85;;;;;;;10.61;65.98;98616.07;2872888;82;21052;-68
2022/02/16 13:32:43;;;;;;;2.40;1.92;;;;;;;10.66;65.64;98610.59;2861615;83;21103;-67
2022/02/16 13:36:44;;;;;;;3.87;2.45;;;;;;;10.56;66.16;98595.30;2862194;83;21334;-67
2022/02/16 13:40:57;;;;;;;4.10;2.62;;;;;;;10.53;66.15;98589.83;2861770;83;21119;-68
2022/02/16 13:44:58;;;;;;;4.85;2.62;;;;;;;10.55;66.46;98580.34;2861913;83;21433;-67
2022/02/16 13:49:09;;;;;;;3.08;2.00;;;;;;;10.54;65.60;98572.03;2861830;83;21043;-69
2022/02/16 13:53:11;;;;;;;5.70;3.15;;;;;;;10.54;66.34;98572.03;2861810;83;21025;-68
2022/02/16 13:57:21;;;;;;;3.85;2.02;;;;;;;10.53;67.80;98567.72;2882591;81;21035;-69
2022/02/16 14:01:23;;;;;;;2.42;2.20;;;;;;;10.42;70.78;98566.23;2911789;81;21059;-68
2022/02/16 14:05:24;;;;;;;2.08;1.80;;;;;;;10.26;70.85;98589.63;2911713;81;21007;-69
2022/02/16 14:09:26;;;;;;;2.17;1.82;;;;;;;10.23;71.64;98596.61;2914901;80;21030;-68
2022/02/16 14:13:28;;;;;;;2.52;2.33;;;;;;;10.17;71.90;98590.13;2930658;81;21046;-67
2022/02/16 14:17:30;;;;;;;2.12;1.77;;;;;;;10.15;71.46;98582.31;2921152;81;20972;-68
2022/02/16 14:21:32;;;;;;;2.62;2.33;;;;;;;10.12;72.13;98569.84;2915658;80;21039;-71
2022/02/16 14:25:34;;;;;;;3.05;1.62;;;;;;;10.09;71.54;98546.27;2872484;83;21404;-68
2022/02/16 14:29:41;;;;;;;2.47;1.98;;;;;;;10.12;71.85;98548.59;2871882;83;21070;-69
2022/02/16 14:33:42;;;;;;;2.40;1.80;;;;;;;10.10;72.37;98538.14;2872228;82;21031;-68
2022/02/16 14:37:45;;;;;;;5.45;2.42;;;;;;;10.02;73.06;98512.08;2872215;83;21047;-67
2022/02/16 14:41:47;;;;;;;3.92;1.30;;;;;;;10.02;74.85;98522.70;2872287;82;20972;-69
2022/02/16 14:45:50;;;;;;;2.65;2.30;;;;;;;9.81;76.00;98508.89;2872181;83;21071;-68
2022/02/16 14:49:51;;;;;;;6.08;3.37;;;;;;;9.74;75.88;98497.80;2872228;82;21000;-69
2022/02/16 14:53:53;;;;;;;2.58;2.37;;;;;;;9.69;77.46;98486.33;2872060;83;21046;-68
2022/02/16 14:57:55;;;;;;;2.98;2.22;;;;;;;9.61;78.84;98482.32;2874476;83;21086;-68
2022/02/16 15:02:01;;;;;;;2.62;2.22;;;;;;;9.59;78.78;98478.52;2875602;83;21109;-69
2022/02/16 15:06:01;;;;;;;1.90;1.70;;;;;;;9.57;78.33;98481.84;2896873;82;20960;-70
2022/02/16 15:10:04;;;;;;;3.22;2.92;;;;;;;9.56;77.79;98467.72;2897440;82;21023;-68
2022/02/16 15:14:08;;;;;;;5.28;2.60;;;;;;;9.60;77.80;98458.95;2897421;82;21036;-69
2022/02/16 15:18:10;;;;;;;3.65;2.75;;;;;;;9.68;77.64;98456.80;2794991;85;21088;-70
2022/02/16 15:22:12;;;;;;;4.75;2.70;;;;;;;9.78;77.11;98476.03;2840848;83;21063;-72
2022/02/16 15:26:13;;;;;;;3.05;2.40;;;;;;;9.75;77.81;98477.70;2820320;83;21030;-69
2022/02/16 15:30:15;;;;;;;3.62;1.75;;;;;;;9.78;77.19;98477.88;2861549;83;21070;-69
2022/02/16 15:34:17;;;;;;;3.77;3.33;;;;;;;9.83;77.21;98459.13;2861923;83;21034;-70
2022/02/16 15:38:19;;;;;;;1.70;1.60;;;;;;;9.83;77.16;98467.09;2810951;84;21054;-68
2022/02/16 15:42:21;;;;;;;2.98;2.20;;;;;;;9.86;77.04;98486.68;2811355;84;21101;-70
2022/02/16 15:46:23;;;;;;;3.27;2.27;;;;;;;9.88;77.31;98481.19;2861952;83;21535;-67
2022/02/16 15:50:24;;;;;;;3.95;2.08;;;;;;;9.91;77.41;98484.83;2813630;83;21011;-72
2022/02/16 15:54:26;;;;;;;4.83;2.40;;;;;;;9.87;77.67;98486.16;2865501;83;20999;-70
2022/02/16 15:58:28;;;;;;;6.37;3.45;;;;;;;9.92;77.48;98502.94;2865786;83;21118;-70
2022/02/16 16:02:29;;;;;;;3.15;2.02;;;;;;;9.86;77.75;98494.64;2865697;83;21019;-68
2022/02/16 16:06:32;;;;;;;1.95;1.45;;;;;;;9.86;77.84;98492.47;2866286;83;21011;-67
2022/02/16 16:10:35;;;;;;;4.83;2.37;;;;;;;9.86;78.05;98493.80;2865999;83;21007;-68
2022/02/16 16:14:37;;;;;;;6.72;4.53;;;;;;;9.86;78.15;98502.61;2862271;83;21050;-68
2022/02/16 16:18:39;;;;;;;10.05;5.45;;;;;;;9.83;78.44;98497.64;2862313;83;21101;-69
2022/02/16 16:22:41;;;;;;;3.15;2.85;;;;;;;9.84;78.41;98509.92;2818670;84;21051;-68
2022/02/16 16:26:46;;;;;;;5.12;3.70;;;;;;;9.84;78.63;98509.92;2889608;81;21062;-68
2022/02/16 16:30:48;;;;;;;3.77;2.70;;;;;;;9.82;78.60;98501.26;2871655;82;21020;-68
2022/02/16 16:34:49;;;;;;;5.70;3.45;;;;;;;9.77;78.50;98480.20;2925197;81;20975;-67
2022/02/16 16:38:51;;;;;;;5.37;2.87;;;;;;;9.79;78.19;98483.00;2872580;83;21531;-68
2022/02/16 16:42:52;;;;;;;6.00;3.45;;;;;;;9.79;78.17;98464.41;2924992;81;21495;-68
2022/02/16 16:46:54;;;;;;;5.05;3.37;;;;;;;9.81;78.03;98470.91;2872159;83;21070;-68
2022/02/16 16:50:57;;;;;;;3.75;3.02;;;;;;;9.83;77.88;98460.45;2925073;81;21023;-68
2022/02/16 16:54:59;;;;;;;8.90;4.72;;;;;;;9.84;77.54;98462.12;2869115;81;21038;-68
2022/02/16 16:59:02;;;;;;;8.65;4.80;;;;;;;9.91;77.43;98479.52;2923066;81;20983;-68
2022/02/16 17:03:04;;;;;;;8.13;4.03;;;;;;;9.95;77.27;98482.69;2931070;81;21396;-68
2022/02/16 17:07:05;;;;;;;6.25;2.67;;;;;;;9.91;77.55;98494.13;2930687;81;21049;-68
2022/02/16 17:11:07;;;;;;;2.60;2.02;;;;;;;9.88;77.41;98498.95;2931063;81;21014;-68
2022/02/16 17:15:09;;;;;;;7.80;4.12;;;;;;;9.93;77.41;98497.48;2931040;81;21026;-68
2022/02/16 17:19:11;;;;;;;2.20;1.22;;;;;;;9.91;77.42;98486.67;2931023;81;20991;-68
2022/02/16 17:23:13;;;;;;;3.85;2.52;;;;;;;9.90;77.59;98483.69;2911417;80;21061;-69
2022/02/16 17:27:16;;;;;;;9.30;5.40;;;;;;;9.95;77.21;98484.01;2912900;80;21058;-67
2022/02/16 17:31:17;;;;;;;9.05;5.67;;;;;;;9.97;77.19;98488.66;2853397;82;21050;-69
2022/02/16 17:35:19;;;;;;;6.85;4.15;;;;;;;10.03;77.12;98507.09;2861925;83;21009;-69
2022/02/16 17:39:21;;;;;;;4.75;2.33;;;;;;;10.11;76.99;98517.22;2862310;83;21047;-68
2022/02/16 17:43:22;;;;;;;3.02;2.05;;;;;;;10.18;77.37;98543.11;2862013;83;20975;-68
2022/02/16 17:47:25;;;;;;;6.25;2.60;;;;;;;10.20;77.37;98537.98;2875519;83;21018;-68
2022/02/16 17:51:27;;;;;;;4.47;2.02;;;;;;;10.14;77.46;98523.52;2875438;83;21070;-68
2022/02/16 17:55:29;;;;;;;15.58;10.55;;;;;;;10.09;77.36;98525.86;2875320;83;21038;-68
2022/02/16 17:59:31;;;;;;;25.82;13.72;;;;;;;9.98;77.73;98499.61;2875267;83;21058;-67
2022/02/16 18:03:32;;;;;;;6.92;4.03;;;;;;;10.10;77.36;98516.05;2845713;82;21021;-68
2022/02/16 18:07:34;;;;;;;4.15;3.47;;;;;;;10.10;77.10;98495.64;2928075;81;21007;-66
2022/02/16 18:11:37;;;;;;;4.97;3.08;;;;;;;10.15;76.97;98479.20;2909644;81;21058;-66
2022/02/16 18:15:38;;;;;;;4.72;3.40;;;;;;;10.20;76.80;98470.70;2960449;80;21039;-66
2022/02/16 18:19:40;;;;;;;5.67;3.85;;;;;;;10.24;76.50;98454.27;2909141;82;21091;-68
2022/02/16 18:23:43;;;;;;;6.50;3.85;;;;;;;10.23;76.52;98450.47;2926219;80;21075;-68
2022/02/16 18:27:45;;;;;;;7.10;3.05;;;;;;;10.24;76.54;98460.09;2921578;80;21067;-67
2022/02/16 18:31:46;;;;;;;2.80;1.70;;;;;;;10.25;76.91;98455.11;2897456;82;21055;-67
2022/02/16 18:35:50;;;;;;;2.52;1.80;;;;;;;10.19;76.87;98439.82;2897366;82;21016;-68
2022/02/16 18:39:51;;;;;;;8.88;5.37;;;;;;;10.24;77.00;98434.85;2897619;82;21016;-65
2022/02/16 18:43:58;;;;;;;4.92;2.45;;;;;;;10.27;76.95;98427.86;2879885;82;21066;-67
2022/02/16 18:47:57;;;;;;;3.92;2.45;;;;;;;10.37;76.61;98421.03;2879533;82;21042;-67
2022/02/16 18:51:59;;;;;;;3.37;2.37;;;;;;;10.38;76.42;98398.25;2879894;81;21070;-68
2022/02/16 18:56:01;;;;;;;2.35;2.05;;;;;;;10.41;75.96;98388.62;2880645;80;21039;-68
2022/02/16 19:00:05;;;;;;;2.52;2.15;;;;;;;10.35;76.45;98362.72;2888531;81;21050;-68
2022/02/16 19:04:08;;;;;;;4.62;3.00;;;;;;;10.27;76.59;98368.08;2899998;82;21025;-68
2022/02/16 19:08:10;;;;;;;4.00;1.90;;;;;;;10.26;77.08;98369.89;2900116;82;21036;-68
2022/02/16 19:12:14;;;;;;;2.95;1.90;;;;;;;10.18;77.50;98339.37;2895796;80;21552;-68
2022/02/16 19:16:15;;;;;;;6.30;2.60;;;;;;;10.11;77.59;98331.25;2936782;80;21079;-68
2022/02/16 19:20:17;;;;;;;5.03;2.33;;;;;;;10.04;77.91;98313.02;2879665;82;21043;-66
2022/02/16 19:24:19;;;;;;;6.62;3.00;;;;;;;10.04;77.86;98326.79;2907331;81;21074;-66
2022/02/16 19:28:21;;;;;;;6.67;2.70;;;;;;;10.03;78.08;98311.37;2917016;80;21010;-66
2022/02/16 19:32:23;;;;;;;5.85;2.08;;;;;;;10.01;78.25;98304.04;2907565;81;21073;-66